INFORMACIÓN METAR y TAF
METAR FOR LEIB
ADDS - METARS form results

(1540 UTC 24 September 2017)
Data provider http://aviationweather.gov/adds/metars/
 
METAR text: LEIB 241530Z 21010KT CAVOK 25/19 Q1020 NOSIG
Conditions at: LEIB (IBIZA/ES CODOLA , ES) observed 1530 UTC 24 September 2017
Temperature: 25.0°C (77°F)
Dewpoint: 19.0°C (66°F) [RH = 69%]
Pressure (altimeter): 30.12 inches Hg (1020.0 mb)
Winds: from the SSW (210 degrees) at 12 MPH (10 knots; 5.2 m/s)
Visibility: 6 or more miles (10+ km)
Ceiling: ceiling and visibility are OK
Clouds: unknown
Weather: no significant weather observed at this time

METAR text: LEIB 241500Z 21009KT CAVOK 25/19 Q1020 NOSIG
Conditions at: LEIB (IBIZA/ES CODOLA , ES) observed 1500 UTC 24 September 2017
Temperature: 25.0°C (77°F)
Dewpoint: 19.0°C (66°F) [RH = 69%]
Pressure (altimeter): 30.12 inches Hg (1020.0 mb)
Winds: from the SSW (210 degrees) at 10 MPH (9 knots; 4.7 m/s)
Visibility: 6 or more miles (10+ km)
Ceiling: ceiling and visibility are OK
Clouds: unknown
Weather: no significant weather observed at this time

Forecast for: LEIB (IBIZA/ES CODOLA , ES)
Text: TAF LEIB 241400Z 2415/2515 22008KT CAVOK TX26/2512Z TN18/2506Z
Forecast period: 1500 UTC 24 September 2017 to 1500 UTC 25 September 2017
Forecast type: FROM: standard forecast or significant change
Winds: from the SW (220 degrees) at 9 MPH (8 knots; 4.2 m/s)
Visibility: 6 or more miles (10+ km)
Clouds: not forecast
Weather: no significant weather forecast for this period

 MAPA DE AEROPUERTO

 INFORMACIÓN DE PISTA
Pista 06 Longitud 9186 ft Ancho 148 ft
Elevación 13 ft Umbral desplazado 0 ft Rumbo de pista 62
Pista 24 Longitud 9186 ft Ancho 148 ft
Elevación 16 ft Umbral desplazado 0 ft Rumbo de pista 242

 FRECUANCIAS DEL AEROPUERTO
Tipo APP Nombre PALMA APP Frecuencia 118.125 MHZ
Tipo APP Nombre APP Frecuencia 119.8 MHZ
Tipo ATIS Nombre ATIS Frecuencia 117.8 MHZ
Tipo GND Nombre GND Frecuencia 121.8 MHZ
Tipo TWR Nombre TWR Frecuencia 118.5 MHZ

 RADIO AYUDAS DEL AEROPUERTO
Tipo VOR-DME Nombre Ibiza Frecuencia 117800 KHZ
Tipo NDB Nombre Ibiza Frecuencia 394 KHZ



Nuestro objetivo, educar a través de la simulación aérea y las redes de vuelo on line la cultura aeronáutica y el conocimiento técnico y operativo de volar un avión comercial; Ayudar en la formación de personas y o profesionales de aquellos que desea llegar a ser piloto privado o de líneas aéreas, militar, controlador aéreo, o conocer el mundo del tráfico aéreo, la simulación aérea, el vuelo, y todo lo referente con la aeronáutica.

Copyright 2006 - 2017
Clickair-Va desde 2006 son marcas registradas con permiso de Vueling S.A
Patrocinado por ACAE
Los foros de Clickair VA son foros privados para los miembros de la VA

Powered by Virtual Airlines Manager